Heinz Schepers — V2OM7 — position and weather

sailwx.info

Track history (hours):
 
Tides and Currents Weather Stations Pressure Air Temp Water Temp Dewpoint Dewpoint Depression Visibility Wind Speed Wind Dir Waves Ship Positions

Heinz Schepers

Last reported at 2014-Oct-29 22:12 UTC. Time now 2014-Oct-30 16:03 UTC.
Position N 34°43' E 032°16'.

Length 101 m; draft 5 m.

Type: Cargo ship. MMSI: 304596000.

Date/timePositionNaut miles runAvg speedWind from/ knotsBaromVisibWave heightAir tempDewpointWater temp
2014-Oct-29 22:12N 34°43' E 032°16'913.8
2014-Oct-29 21:34N 34°39' E 032°25'1414.0
2014-Oct-29 20:33N 34°35' E 032°42'1413.8
2014-Oct-29 19:33N 34°32' E 032°58'8 7.8
2014-Oct-29 18:33N 34°39' E 033°01'0 0.3
2014-Oct-29 17:33N 34°39' E 033°01'0 0.0
2014-Oct-29 16:33N 34°39' E 033°01'0 0.0
2014-Oct-29 15:33N 34°39' E 033°01'0 0.0
2014-Oct-29 14:33N 34°39' E 033°01'0 0.0
2014-Oct-29 13:33N 34°39' E 033°01'0 0.0
2014-Oct-29 12:33N 34°39' E 033°01'0 0.0
2014-Oct-29 11:33N 34°39' E 033°01'0 0.0
2014-Oct-29 10:33N 34°39' E 033°01'0 0.0
2014-Oct-29 09:33N 34°39' E 033°01'0 0.0
2014-Oct-29 08:33N 34°39' E 033°01'0 0.0
2014-Oct-29 07:33N 34°39' E 033°01'0 0.0
2014-Oct-29 06:33N 34°39' E 033°01'0 0.0
2014-Oct-29 05:33N 34°39' E 033°01'1 0.6
2014-Oct-29 04:33N 34°39' E 033°02'2 2.3
2014-Oct-29 03:31N 34°41' E 033°04'0 0.0
2014-Oct-29 02:31N 34°41' E 033°04'0 0.0
2014-Oct-29 01:31N 34°41' E 033°04'0 0.0
2014-Oct-29 00:31N 34°41' E 033°04'0 0.0
2014-Oct-28 23:31N 34°41' E 033°04'0 0.0
2014-Oct-28 22:31N 34°41' E 033°04'0 0.0
2014-Oct-28 21:31N 34°41' E 033°04'0 0.0
2014-Oct-28 20:31N 34°41' E 033°04'0 0.0
2014-Oct-28 19:31N 34°41' E 033°04'0 0.0
2014-Oct-28 18:31N 34°41' E 033°04'0 0.0
2014-Oct-28 17:31N 34°41' E 033°04'0 0.0
2014-Oct-28 16:31N 34°41' E 033°04'0 0.0
2014-Oct-28 15:31N 34°41' E 033°04'0 0.0
2014-Oct-28 14:31N 34°41' E 033°04'0 0.0
2014-Oct-28 13:31N 34°41' E 033°04'0 0.0
2014-Oct-28 12:31N 34°41' E 033°04'0 0.0
2014-Oct-28 11:31N 34°41' E 033°04'0 0.0
2014-Oct-28 10:31N 34°41' E 033°04'0 0.0
2014-Oct-28 09:31N 34°41' E 033°04'0 0.0
2014-Oct-28 08:31N 34°41' E 033°04'2 2.0
2014-Oct-28 07:33N 34°39' E 033°04'1010.0
2014-Oct-28 06:33N 34°32' E 032°56'1313.2
2014-Oct-28 05:33N 34°35' E 032°40'1413.6
2014-Oct-28 04:31N 34°39' E 032°24'31612.6
2014-Oct-27 03:31N 37°22' E 026°49'1813.3
2014-Oct-27 02:12N 37°36' E 026°36'1212.5
2014-Oct-27 01:16N 37°45' E 026°26'  
2014-Oct-23 17:28N 37°26' E 026°45'31213.0
2014-Oct-22 17:28N 34°44' E 032°15'1313.9
2014-Oct-22 16:33N 34°38' E 032°29'1414.1
2014-Oct-22 15:34N 34°34' E 032°45'1313.3
2014-Oct-22 14:33N 34°32' E 033°01'7 6.8
2014-Oct-22 13:33N 34°39' E 033°01'0 0.0
2014-Oct-22 12:31N 34°39' E 033°01'0 0.0
2014-Oct-22 11:31N 34°39' E 033°01'0 0.0
2014-Oct-22 10:31N 34°39' E 033°01'0 0.0
2014-Oct-22 09:31N 34°39' E 033°01'0 0.0
2014-Oct-22 08:31N 34°39' E 033°01'0 0.0
2014-Oct-22 07:31N 34°39' E 033°01'0 0.0
2014-Oct-22 06:28N 34°39' E 033°01'0 0.1
2014-Oct-22 05:31N 34°39' E 033°01'0 0.0
2014-Oct-22 04:31N 34°39' E 033°01'3 2.9
2014-Oct-22 03:33N 34°39' E 033°04'1 1.3
2014-Oct-22 02:31N 34°40' E 033°04'0 0.0
2014-Oct-22 01:31N 34°40' E 033°04'0 0.0
2014-Oct-22 00:31N 34°40' E 033°04'0 0.0
2014-Oct-21 23:31N 34°40' E 033°04'0 0.0
2014-Oct-21 22:33N 34°40' E 033°04'0 0.0
2014-Oct-21 21:33N 34°40' E 033°04'0 0.0
2014-Oct-21 20:33N 34°40' E 033°04'0 0.0
2014-Oct-21 19:33N 34°40' E 033°04'0 0.0
2014-Oct-21 18:33N 34°40' E 033°04'0 0.0
2014-Oct-21 17:33N 34°40' E 033°04'7 7.0
2014-Oct-21 16:33N 34°33' E 033°04'1211.7
2014-Oct-21 15:33N 34°31' E 032°50'1313.0
2014-Oct-21 14:33N 34°36' E 032°35'31912.7
2014-Oct-20 13:25N 37°15' E 026°54'1213.7
2014-Oct-20 12:33N 37°26' E 026°47'1313.4
2014-Oct-20 11:33N 37°36' E 026°37'1512.9
2014-Oct-20 10:24N 37°46' E 026°23'2713.5
2014-Oct-20 08:23N 37°60' E 025°53'1113.1
2014-Oct-20 07:31N 38°06' E 025°41'1313.2
2014-Oct-20 06:33N 38°13' E 025°27'1313.0
2014-Oct-20 05:33N 38°19' E 025°13'  
Track history (hours):
 
Tides and Currents Weather Stations Pressure Air Temp Water Temp Dewpoint Dewpoint Depression Visibility Wind Speed Wind Dir Waves Ship Positions

Heinz Schepers

Last reported at 2014-Oct-29 22:12 UTC. Time now 2014-Oct-30 16:03 UTC.
Position N 34°43' E 032°16'.

Length 101 m; draft 5 m.

Type: Cargo ship. MMSI: 304596000.

Date/timePositionNaut miles runAvg speedWind from/ knotsBaromVisibWave heightAir tempDewpointWater temp
2014-Oct-29 22:12N 34°43' E 032°16'913.8
2014-Oct-29 21:34N 34°39' E 032°25'1414.0
2014-Oct-29 20:33N 34°35' E 032°42'1413.8
2014-Oct-29 19:33N 34°32' E 032°58'8 7.8
2014-Oct-29 18:33N 34°39' E 033°01'0 0.3
2014-Oct-29 17:33N 34°39' E 033°01'0 0.0
2014-Oct-29 16:33N 34°39' E 033°01'0 0.0
2014-Oct-29 15:33N 34°39' E 033°01'0 0.0
2014-Oct-29 14:33N 34°39' E 033°01'0 0.0
2014-Oct-29 13:33N 34°39' E 033°01'0 0.0
2014-Oct-29 12:33N 34°39' E 033°01'0 0.0
2014-Oct-29 11:33N 34°39' E 033°01'0 0.0
2014-Oct-29 10:33N 34°39' E 033°01'0 0.0
2014-Oct-29 09:33N 34°39' E 033°01'0 0.0
2014-Oct-29 08:33N 34°39' E 033°01'0 0.0
2014-Oct-29 07:33N 34°39' E 033°01'0 0.0
2014-Oct-29 06:33N 34°39' E 033°01'0 0.0
2014-Oct-29 05:33N 34°39' E 033°01'1 0.6
2014-Oct-29 04:33N 34°39' E 033°02'2 2.3
2014-Oct-29 03:31N 34°41' E 033°04'0 0.0
2014-Oct-29 02:31N 34°41' E 033°04'0 0.0
2014-Oct-29 01:31N 34°41' E 033°04'0 0.0
2014-Oct-29 00:31N 34°41' E 033°04'0 0.0
2014-Oct-28 23:31N 34°41' E 033°04'0 0.0
2014-Oct-28 22:31N 34°41' E 033°04'0 0.0
2014-Oct-28 21:31N 34°41' E 033°04'0 0.0
2014-Oct-28 20:31N 34°41' E 033°04'0 0.0
2014-Oct-28 19:31N 34°41' E 033°04'0 0.0
2014-Oct-28 18:31N 34°41' E 033°04'0 0.0
2014-Oct-28 17:31N 34°41' E 033°04'0 0.0
2014-Oct-28 16:31N 34°41' E 033°04'0 0.0
2014-Oct-28 15:31N 34°41' E 033°04'0 0.0
2014-Oct-28 14:31N 34°41' E 033°04'0 0.0
2014-Oct-28 13:31N 34°41' E 033°04'0 0.0
2014-Oct-28 12:31N 34°41' E 033°04'0 0.0
2014-Oct-28 11:31N 34°41' E 033°04'0 0.0
2014-Oct-28 10:31N 34°41' E 033°04'0 0.0
2014-Oct-28 09:31N 34°41' E 033°04'0 0.0
2014-Oct-28 08:31N 34°41' E 033°04'2 2.0
2014-Oct-28 07:33N 34°39' E 033°04'1010.0
2014-Oct-28 06:33N 34°32' E 032°56'1313.2
2014-Oct-28 05:33N 34°35' E 032°40'1413.6
2014-Oct-28 04:31N 34°39' E 032°24'31612.6
2014-Oct-27 03:31N 37°22' E 026°49'1813.3
2014-Oct-27 02:12N 37°36' E 026°36'1212.5
2014-Oct-27 01:16N 37°45' E 026°26'  
2014-Oct-23 17:28N 37°26' E 026°45'31213.0
2014-Oct-22 17:28N 34°44' E 032°15'1313.9
2014-Oct-22 16:33N 34°38' E 032°29'1414.1
2014-Oct-22 15:34N 34°34' E 032°45'1313.3
2014-Oct-22 14:33N 34°32' E 033°01'7 6.8
2014-Oct-22 13:33N 34°39' E 033°01'0 0.0
2014-Oct-22 12:31N 34°39' E 033°01'0 0.0
2014-Oct-22 11:31N 34°39' E 033°01'0 0.0
2014-Oct-22 10:31N 34°39' E 033°01'0 0.0
2014-Oct-22 09:31N 34°39' E 033°01'0 0.0
2014-Oct-22 08:31N 34°39' E 033°01'0 0.0
2014-Oct-22 07:31N 34°39' E 033°01'0 0.0
2014-Oct-22 06:28N 34°39' E 033°01'0 0.1
2014-Oct-22 05:31N 34°39' E 033°01'0 0.0
2014-Oct-22 04:31N 34°39' E 033°01'3 2.9
2014-Oct-22 03:33N 34°39' E 033°04'1 1.3
2014-Oct-22 02:31N 34°40' E 033°04'0 0.0
2014-Oct-22 01:31N 34°40' E 033°04'0 0.0
2014-Oct-22 00:31N 34°40' E 033°04'0 0.0
2014-Oct-21 23:31N 34°40' E 033°04'0 0.0
2014-Oct-21 22:33N 34°40' E 033°04'0 0.0
2014-Oct-21 21:33N 34°40' E 033°04'0 0.0
2014-Oct-21 20:33N 34°40' E 033°04'0 0.0
2014-Oct-21 19:33N 34°40' E 033°04'0 0.0
2014-Oct-21 18:33N 34°40' E 033°04'0 0.0
2014-Oct-21 17:33N 34°40' E 033°04'7 7.0
2014-Oct-21 16:33N 34°33' E 033°04'1211.7
2014-Oct-21 15:33N 34°31' E 032°50'1313.0
2014-Oct-21 14:33N 34°36' E 032°35'31912.7
2014-Oct-20 13:25N 37°15' E 026°54'1213.7
2014-Oct-20 12:33N 37°26' E 026°47'1313.4
2014-Oct-20 11:33N 37°36' E 026°37'1512.9
2014-Oct-20 10:24N 37°46' E 026°23'2713.5
2014-Oct-20 08:23N 37°60' E 025°53'1113.1
2014-Oct-20 07:31N 38°06' E 025°41'1313.2
2014-Oct-20 06:33N 38°13' E 025°27'1313.0
2014-Oct-20 05:33N 38°19' E 025°13'  

Dump ship's entire track history